Time;durP1;ratioP1;P1;durP2;ratioP2;P2;SDS_P1;SDS_P2;PMS_P1;PMS_P2;Temp;Humidity;BMP_temperature;BMP_pressure;BME280_temperature;BME280_humidity;BME280_pressure;Samples;Min_cycle;Max_cycle;Signal;HPM_P1;HPM_P2
2022/02/14 00:00:11;;;;;;;22.70;13.15;;;;;;;7.80;42.30;95847.59;4952780;29;20216;-71
2022/02/14 00:02:39;;;;;;;23.45;14.00;;;;;;;7.72;42.19;95849.69;4953283;29;20726;-71
2022/02/14 00:05:06;;;;;;;19.50;13.65;;;;;;;7.89;42.46;95846.31;4952234;29;20196;-69
2022/02/14 00:07:33;;;;;;;21.90;13.38;;;;;;;7.93;42.30;95851.91;4951334;28;20216;-71
2022/02/14 00:10:00;;;;;;;24.38;14.13;;;;;;;7.88;41.87;95844.69;4951154;28;20215;-72
2022/02/14 00:12:28;;;;;;;23.40;14.30;;;;;;;7.99;41.99;95845.81;4951466;29;20200;-71
2022/02/14 00:14:55;;;;;;;22.35;15.02;;;;;;;7.74;42.23;95848.44;4951824;29;20235;-69
2022/02/14 00:17:23;;;;;;;23.20;14.55;;;;;;;7.69;42.16;95844.88;4951741;29;20243;-70
2022/02/14 00:19:51;;;;;;;23.67;13.20;;;;;;;7.72;42.12;95831.44;4951208;29;20219;-69
2022/02/14 00:22:21;;;;;;;22.65;13.13;;;;;;;7.49;43.39;95845.06;4951395;29;20659;-70
2022/02/14 00:24:52;;;;;;;23.58;12.57;;;;;;;7.64;42.87;95847.34;4949568;29;20204;-74
2022/02/14 00:27:20;;;;;;;19.15;12.07;;;;;;;7.50;43.01;95851.06;4951286;29;20200;-70
2022/02/14 00:29:48;;;;;;;22.90;12.05;;;;;;;7.62;42.69;95859.78;4951489;29;20882;-71
2022/02/14 00:32:20;;;;;;;18.75;11.82;;;;;;;7.30;43.46;95842.59;4951960;29;20231;-71
2022/02/14 00:34:50;;;;;;;19.65;11.60;;;;;;;7.61;43.27;95847.78;4951055;29;20212;-71
2022/02/14 00:37:18;;;;;;;18.75;12.30;;;;;;;7.65;42.70;95828.88;4952057;29;20207;-70
2022/02/14 00:39:45;;;;;;;18.67;12.10;;;;;;;7.76;42.80;95843.81;4950982;29;20211;-70
2022/02/14 00:42:13;;;;;;;21.92;12.02;;;;;;;7.67;42.94;95846.91;4951370;29;20220;-71
2022/02/14 00:44:41;;;;;;;19.65;11.88;;;;;;;7.78;42.75;95835.78;4950980;29;20262;-69
2022/02/14 00:47:08;;;;;;;17.45;10.75;;;;;;;7.87;42.74;95843.13;4950806;29;20657;-70
2022/02/14 00:49:35;;;;;;;20.00;11.95;;;;;;;7.84;42.59;95832.31;4950983;29;20204;-70
2022/02/14 00:52:03;;;;;;;19.45;11.95;;;;;;;7.79;42.47;95830.34;4951554;29;20204;-69
2022/02/14 00:54:31;;;;;;;21.17;12.48;;;;;;;7.90;42.00;95827.00;4952161;29;20682;-71
2022/02/14 00:56:58;;;;;;;21.05;11.60;;;;;;;7.97;41.88;95827.75;4951317;29;20238;-71
2022/02/14 00:59:26;;;;;;;20.48;12.00;;;;;;;7.99;42.15;95819.72;4951119;29;20208;-70
2022/02/14 01:01:53;;;;;;;19.70;12.00;;;;;;;8.10;42.14;95821.63;4950872;29;20315;-70
2022/02/14 01:04:20;;;;;;;22.23;12.77;;;;;;;8.17;41.61;95814.50;4950319;29;20638;-70
2022/02/14 01:06:47;;;;;;;21.75;13.00;;;;;;;8.12;41.84;95814.34;4950278;29;20204;-70
2022/02/14 01:09:13;;;;;;;18.92;12.00;;;;;;;8.07;42.04;95812.41;4950470;29;20223;-71
2022/02/14 01:11:41;;;;;;;20.85;13.45;;;;;;;8.14;42.14;95817.53;4950930;29;20200;-69
2022/02/14 01:14:13;;;;;;;20.35;12.60;;;;;;;8.13;42.03;95813.34;4950031;29;20236;-70
2022/02/14 01:16:40;;;;;;;20.67;11.85;;;;;;;8.18;42.00;95803.03;4950031;29;20204;-70
2022/02/14 01:19:07;;;;;;;19.02;11.90;;;;;;;8.22;42.02;95801.59;4949880;28;20200;-70
2022/02/14 01:21:34;;;;;;;16.75;11.50;;;;;;;8.22;41.63;95788.53;4950922;29;20203;-70
2022/02/14 01:24:01;;;;;;;18.90;11.13;;;;;;;8.26;41.73;95794.94;4949472;29;20235;-71
2022/02/14 01:26:28;;;;;;;18.75;11.73;;;;;;;8.10;42.42;95796.28;4951099;29;20208;-70
2022/02/14 01:28:56;;;;;;;19.30;11.90;;;;;;;8.18;42.46;95800.44;4949989;29;20226;-69
2022/02/14 01:31:23;;;;;;;22.30;13.13;;;;;;;8.12;42.31;95793.44;4950535;29;20200;-69
2022/02/14 01:33:50;;;;;;;19.35;12.35;;;;;;;8.29;42.45;95798.91;4950320;29;20277;-70
2022/02/14 01:36:18;;;;;;;20.88;13.10;;;;;;;8.00;42.94;95790.00;4950565;29;20196;-70
2022/02/14 01:38:45;;;;;;;22.83;14.77;;;;;;;8.17;42.37;95798.84;4949988;29;20258;-69
2022/02/14 01:41:11;;;;;;;27.50;17.00;;;;;;;8.28;41.77;95797.34;4950409;29;20196;-70
2022/02/14 01:43:39;;;;;;;26.25;17.05;;;;;;;8.32;41.84;95785.44;4949811;29;20196;-71
2022/02/14 01:46:06;;;;;;;27.90;16.42;;;;;;;8.56;41.25;95800.22;4950203;29;20239;-70
2022/02/14 01:48:34;;;;;;;26.02;16.02;;;;;;;8.29;42.16;95791.91;4948736;29;20313;-70
2022/02/14 01:51:01;;;;;;;28.23;16.83;;;;;;;8.27;42.21;95775.66;4949616;29;20239;-69
2022/02/14 01:53:29;;;;;;;26.88;16.75;;;;;;;8.33;41.74;95773.97;4949941;29;20227;-69
2022/02/14 01:55:56;;;;;;;28.25;18.05;;;;;;;8.13;42.56;95795.06;4949877;29;20311;-69
2022/02/14 01:58:23;;;;;;;31.05;19.80;;;;;;;8.37;41.71;95786.38;4933124;29;20280;-70
2022/02/14 02:00:50;;;;;;;27.60;19.27;;;;;;;8.48;41.83;95777.81;4950326;29;20678;-70
2022/02/14 02:03:17;;;;;;;29.10;18.13;;;;;;;8.27;41.61;95738.28;4950103;29;20206;-70
2022/02/14 02:05:45;;;;;;;30.15;18.95;;;;;;;8.67;41.36;95768.91;4949967;29;20559;-70
2022/02/14 02:08:13;;;;;;;27.20;17.08;;;;;;;8.71;40.61;95714.38;4949746;29;21064;-70
2022/02/14 02:10:41;;;;;;;27.65;17.40;;;;;;;8.95;40.53;95769.13;4949967;29;20200;-71
2022/02/14 02:13:10;;;;;;;27.92;17.20;;;;;;;8.39;41.65;95747.00;4949823;29;20239;-71
2022/02/14 02:15:37;;;;;;;35.00;20.83;;;;;;;8.16;42.42;95763.28;4948939;29;20239;-70
2022/02/14 02:18:06;;;;;;;29.10;18.10;;;;;;;8.00;42.84;95750.84;4950397;29;20214;-69
2022/02/14 02:20:34;;;;;;;28.52;19.35;;;;;;;8.04;42.67;95759.84;4932707;29;20259;-69
2022/02/14 02:23:01;;;;;;;31.95;20.15;;;;;;;8.10;42.64;95764.19;4949548;29;21030;-70
2022/02/14 02:25:28;;;;;;;29.27;18.60;;;;;;;8.29;42.50;95757.16;4949617;29;20199;-70
2022/02/14 02:27:55;;;;;;;26.02;16.25;;;;;;;8.30;42.49;95754.34;4949745;29;20251;-71
2022/02/14 02:30:23;;;;;;;30.70;17.25;;;;;;;8.42;41.76;95752.56;4951336;28;20702;-70
2022/02/14 02:32:51;;;;;;;30.02;17.25;;;;;;;8.43;42.42;95738.47;4953692;29;20278;-70
2022/02/14 02:35:19;;;;;;;28.45;17.65;;;;;;;8.58;42.28;95746.72;4953127;29;20199;-70
2022/02/14 02:37:46;;;;;;;31.83;18.90;;;;;;;8.48;41.75;95753.50;4953381;29;20601;-70
2022/02/14 02:40:14;;;;;;;29.13;18.50;;;;;;;8.41;41.82;95729.28;4952966;29;20235;-70
2022/02/14 02:42:41;;;;;;;26.40;16.60;;;;;;;8.47;42.56;95739.63;4953223;29;20697;-74
2022/02/14 02:45:09;;;;;;;25.25;14.68;;;;;;;8.67;41.64;95740.16;4952880;29;20671;-70
2022/02/14 02:47:36;;;;;;;20.40;14.18;;;;;;;8.47;41.93;95729.19;4952466;29;20210;-71
2022/02/14 02:50:04;;;;;;;21.52;14.38;;;;;;;8.40;42.21;95740.72;4954270;29;20224;-70
2022/02/14 02:52:31;;;;;;;22.25;14.43;;;;;;;8.41;42.21;95755.41;4955219;29;20196;-71
2022/02/14 02:54:58;;;;;;;24.85;15.23;;;;;;;8.08;42.92;95755.78;4953791;29;20271;-71
2022/02/14 02:57:25;;;;;;;22.63;15.02;;;;;;;8.29;42.89;95749.31;4936628;29;20267;-70
2022/02/14 02:59:53;;;;;;;24.55;14.60;;;;;;;8.36;42.43;95753.44;4952834;29;20247;-70
2022/02/14 03:02:20;;;;;;;21.95;13.32;;;;;;;8.50;42.35;95747.03;4953126;29;20208;-69
2022/02/14 03:04:48;;;;;;;21.88;14.00;;;;;;;8.51;42.64;95743.41;4952026;29;20207;-70
2022/02/14 03:07:15;;;;;;;22.65;14.52;;;;;;;8.45;42.80;95741.66;4953036;29;20271;-70
2022/02/14 03:09:42;;;;;;;20.33;14.43;;;;;;;8.53;42.43;95743.97;4952926;29;20280;-69
2022/02/14 03:12:11;;;;;;;24.75;14.75;;;;;;;8.45;42.77;95746.88;4952955;29;20207;-70
2022/02/14 03:14:39;;;;;;;23.98;15.35;;;;;;;8.34;42.64;95749.47;4951779;29;20299;-71
2022/02/14 03:17:10;;;;;;;25.27;15.70;;;;;;;7.87;43.71;95758.81;4952298;29;20200;-70
2022/02/14 03:19:38;;;;;;;24.77;15.55;;;;;;;8.23;43.38;95752.78;4952460;29;20204;-69
2022/02/14 03:22:05;;;;;;;22.90;15.50;;;;;;;8.36;42.22;95747.44;4952176;29;20204;-72
2022/02/14 03:24:32;;;;;;;22.58;15.48;;;;;;;8.44;42.84;95747.91;4952699;29;20199;-71
2022/02/14 03:26:59;;;;;;;27.15;15.45;;;;;;;8.39;42.67;95747.00;4953168;29;20244;-71
2022/02/14 03:29:26;;;;;;;28.40;16.95;;;;;;;8.39;42.58;95752.22;4952764;29;20231;-70
2022/02/14 03:31:53;;;;;;;27.65;16.70;;;;;;;8.32;42.95;95726.16;4953252;29;20204;-69
2022/02/14 03:34:20;;;;;;;22.65;15.75;;;;;;;8.31;42.39;95735.03;4952771;29;20255;-71
2022/02/14 03:36:48;;;;;;;28.13;16.67;;;;;;;8.29;42.78;95737.06;4952664;29;20208;-69
2022/02/14 03:39:15;;;;;;;24.67;16.90;;;;;;;8.28;42.83;95740.69;4953240;29;20286;-71
2022/02/14 03:41:42;;;;;;;27.08;17.27;;;;;;;8.26;42.99;95731.47;4952086;28;20203;-71
2022/02/14 03:44:09;;;;;;;28.35;16.10;;;;;;;8.18;43.17;95730.75;4950734;29;20235;-70
2022/02/14 03:46:36;;;;;;;25.63;16.33;;;;;;;8.28;43.13;95735.47;4950763;29;20616;-70
2022/02/14 03:49:04;;;;;;;25.27;16.27;;;;;;;8.28;43.15;95735.47;4951773;29;20275;-70
2022/02/14 03:51:31;;;;;;;25.58;16.98;;;;;;;8.22;42.80;95741.53;4956025;29;20279;-70
2022/02/14 03:53:59;;;;;;;23.92;16.23;;;;;;;8.22;43.19;95736.31;4938821;29;20204;-72
2022/02/14 03:56:26;;;;;;;26.48;16.88;;;;;;;8.11;42.68;95713.56;4955884;29;20199;-69
2022/02/14 03:58:52;;;;;;;26.17;16.52;;;;;;;8.26;42.62;95742.72;4952870;29;20296;-70
2022/02/14 04:01:19;;;;;;;24.75;15.85;;;;;;;8.20;43.39;95746.19;4953296;29;20258;-70
2022/02/14 04:03:46;;;;;;;22.52;15.10;;;;;;;8.04;43.28;95715.47;4952915;29;20227;-70
2022/02/14 04:06:13;;;;;;;22.35;14.60;;;;;;;8.14;42.79;95718.34;4952519;29;20200;-70
2022/02/14 04:08:40;;;;;;;23.60;13.95;;;;;;;8.11;43.05;95724.81;4952417;29;20259;-72
2022/02/14 04:11:07;;;;;;;22.75;14.07;;;;;;;7.65;43.96;95719.31;4952968;29;20267;-72
2022/02/14 04:13:34;;;;;;;18.58;13.18;;;;;;;7.78;43.38;95732.22;4947799;29;20236;-72
2022/02/14 04:16:00;;;;;;;26.23;13.32;;;;;;;7.96;43.48;95731.41;4933782;29;20201;-73
2022/02/14 04:18:29;;;;;;;21.17;14.40;;;;;;;7.97;43.00;95710.31;4939070;29;20223;-70
2022/02/14 04:20:56;;;;;;;24.35;15.93;;;;;;;8.15;42.88;95733.81;4942621;29;20208;-70
2022/02/14 04:23:23;;;;;;;22.20;14.70;;;;;;;8.15;43.20;95727.78;4942429;29;20247;-70
2022/02/14 04:25:52;;;;;;;22.63;15.43;;;;;;;8.08;43.22;95721.84;4956242;29;20219;-70
2022/02/14 04:28:20;;;;;;;21.60;14.32;;;;;;;8.01;43.78;95724.53;4941928;29;20207;-71
2022/02/14 04:30:47;;;;;;;23.33;14.48;;;;;;;7.89;43.32;95696.78;4942773;29;20199;-71
2022/02/14 04:33:14;;;;;;;21.30;14.05;;;;;;;8.01;42.94;95721.91;4942270;29;20248;-70
2022/02/14 04:35:40;;;;;;;22.65;14.32;;;;;;;8.12;43.13;95721.16;4939415;29;20184;-72
2022/02/14 04:38:07;;;;;;;21.25;14.63;;;;;;;8.10;43.38;95723.19;4933486;29;20256;-72
2022/02/14 04:40:37;;;;;;;20.48;13.82;;;;;;;7.95;43.21;95717.59;4932980;29;20212;-70
2022/02/14 04:43:04;;;;;;;21.15;14.60;;;;;;;7.66;44.03;95714.91;4933024;29;20240;-71
2022/02/14 04:45:34;;;;;;;21.95;14.05;;;;;;;7.86;44.12;95725.91;4931070;29;20204;-71
2022/02/14 04:48:01;;;;;;;24.50;14.50;;;;;;;7.71;44.19;95722.88;4933039;29;20756;-70
2022/02/14 04:50:29;;;;;;;20.70;14.52;;;;;;;7.53;44.70;95738.50;4932496;29;20212;-71
2022/02/14 04:52:55;;;;;;;24.10;15.00;;;;;;;7.60;44.03;95740.03;4933073;29;20209;-72
2022/02/14 04:55:23;;;;;;;25.48;15.45;;;;;;;7.78;44.19;95736.63;4935667;29;20204;-72
2022/02/14 04:57:50;;;;;;;21.92;13.68;;;;;;;7.87;44.14;95737.94;4932849;29;20235;-71
2022/02/14 05:00:17;;;;;;;19.05;13.98;;;;;;;7.86;43.67;95737.16;4931694;29;20196;-70
2022/02/14 05:02:44;;;;;;;24.33;14.48;;;;;;;7.68;45.12;95733.75;4932618;29;20672;-70
2022/02/14 05:05:12;;;;;;;18.95;13.82;;;;;;;7.67;45.90;95706.84;4931387;29;20565;-71
2022/02/14 05:07:40;;;;;;;22.00;13.60;;;;;;;7.89;45.64;95725.47;4931178;29;20205;-71
2022/02/14 05:10:08;;;;;;;22.85;13.30;;;;;;;7.79;45.80;95730.41;4929952;29;20707;-72
2022/02/14 05:12:35;;;;;;;23.98;12.90;;;;;;;7.54;45.46;95732.25;4932261;29;20204;-72
2022/02/14 05:15:05;;;;;;;20.63;12.55;;;;;;;7.88;45.51;95742.16;4949940;28;20223;-71
2022/02/14 05:17:33;;;;;;;20.50;12.45;;;;;;;8.04;45.28;95731.13;4950919;28;20195;-69
2022/02/14 05:20:00;;;;;;;18.77;11.85;;;;;;;7.95;44.88;95740.25;4951397;29;20188;-71
2022/02/14 05:22:27;;;;;;;22.40;12.68;;;;;;;7.84;45.31;95743.59;4951260;29;20212;-71
2022/02/14 05:24:54;;;;;;;25.30;12.18;;;;;;;7.85;44.91;95743.38;4950925;28;20208;-70
2022/02/14 05:27:21;;;;;;;18.95;11.75;;;;;;;7.75;45.04;95718.81;4951522;29;20203;-69
2022/02/14 05:29:49;;;;;;;20.55;12.68;;;;;;;7.76;45.99;95738.66;4951185;29;20334;-70
2022/02/14 05:32:16;;;;;;;18.65;12.70;;;;;;;7.94;45.39;95729.03;4952167;29;20180;-70
2022/02/14 05:34:43;;;;;;;20.77;12.02;;;;;;;7.71;44.49;95728.09;4951319;29;20263;-69
2022/02/14 05:37:10;;;;;;;18.42;12.23;;;;;;;7.88;43.99;95734.31;4949960;29;20290;-71
2022/02/14 05:39:37;;;;;;;15.88;10.60;;;;;;;7.84;44.72;95738.38;4951042;29;20216;-71
2022/02/14 05:42:04;;;;;;;21.95;11.25;;;;;;;7.91;44.22;95739.91;4951678;29;20214;-70
2022/02/14 05:44:31;;;;;;;19.10;11.82;;;;;;;7.85;44.09;95747.78;4951244;29;20300;-71
2022/02/14 05:46:58;;;;;;;19.70;10.50;;;;;;;7.74;44.23;95753.72;4950972;28;20202;-68
2022/02/14 05:49:25;;;;;;;19.42;11.40;;;;;;;8.02;44.08;95743.59;4949737;28;20216;-71
2022/02/14 05:51:53;;;;;;;18.50;11.55;;;;;;;7.83;44.38;95747.19;4950621;28;20195;-71
2022/02/14 05:54:21;;;;;;;17.23;11.32;;;;;;;7.89;45.28;95754.19;4970074;28;20202;-70
2022/02/14 05:56:47;;;;;;;66.35;39.75;;;;;;;8.00;44.61;95745.63;4969452;28;20202;-71
2022/02/14 05:59:16;;;;;;;20.63;12.38;;;;;;;8.07;44.75;95744.53;4970921;28;20195;-73
2022/02/14 06:01:43;;;;;;;27.92;14.80;;;;;;;8.39;43.72;95747.78;4970660;28;20194;-71
2022/02/14 06:04:11;;;;;;;22.25;12.23;;;;;;;8.48;43.14;95740.44;4969735;28;20286;-71
2022/02/14 06:06:38;;;;;;;18.75;11.73;;;;;;;8.39;43.51;95729.50;4969648;28;20196;-75
2022/02/14 06:09:05;;;;;;;47.53;28.70;;;;;;;8.51;43.46;95740.00;4970278;28;20215;-73
2022/02/14 06:11:32;;;;;;;54.85;24.90;;;;;;;8.29;43.29;95744.09;4970527;28;20196;-72
2022/02/14 06:13:59;;;;;;;19.08;12.50;;;;;;;8.21;43.59;95734.75;4969389;28;20242;-71
2022/02/14 06:16:26;;;;;;;26.15;11.82;;;;;;;8.34;43.92;95754.69;4952666;28;20234;-70
2022/02/14 06:18:53;;;;;;;16.77;12.00;;;;;;;8.29;43.78;95755.34;4969775;28;20262;-72
2022/02/14 06:21:25;;;;;;;19.92;12.35;;;;;;;8.24;43.52;95765.66;4970287;28;20381;-70
2022/02/14 06:23:51;;;;;;;21.75;12.43;;;;;;;8.32;43.73;95746.28;4969768;28;20689;-71
2022/02/14 06:26:19;;;;;;;22.63;12.93;;;;;;;8.52;43.65;95762.50;4969936;28;20226;-72
2022/02/14 06:28:45;;;;;;;19.02;11.82;;;;;;;8.41;43.86;95771.84;4963169;28;20196;-71
2022/02/14 06:31:12;;;;;;;22.48;12.95;;;;;;;8.53;43.61;95772.72;4950370;28;20243;-74
2022/02/14 06:33:42;;;;;;;22.58;12.40;;;;;;;8.67;42.74;95763.66;4948995;29;20203;-71
2022/02/14 06:36:09;;;;;;;26.85;13.75;;;;;;;8.48;42.71;95762.13;4949419;29;20239;-74
2022/02/14 06:38:37;;;;;;;27.80;14.57;;;;;;;8.53;42.82;95769.28;4945607;29;20864;-72
2022/02/14 06:41:06;;;;;;;20.13;13.20;;;;;;;8.57;43.45;95768.66;4947733;29;20645;-72
2022/02/14 06:43:34;;;;;;;21.42;13.88;;;;;;;8.81;42.64;95770.31;4948303;29;20283;-71
2022/02/14 06:46:02;;;;;;;21.60;12.95;;;;;;;8.78;42.73;95773.38;4949245;29;20238;-72
2022/02/14 06:48:29;;;;;;;24.35;13.38;;;;;;;8.57;42.61;95752.97;4953979;29;20200;-72
2022/02/14 06:50:57;;;;;;;32.47;15.75;;;;;;;8.59;43.51;95768.41;4952668;29;20319;-71
2022/02/14 06:53:25;;;;;;;24.27;15.10;;;;;;;8.60;43.47;95767.38;4949669;29;20676;-71
2022/02/14 06:55:55;;;;;;;24.65;13.43;;;;;;;8.53;43.69;95780.56;4951735;29;20192;-73
2022/02/14 06:58:22;;;;;;;22.45;13.38;;;;;;;8.42;43.83;95778.69;4950477;29;20204;-70
2022/02/14 07:00:49;;;;;;;25.30;12.65;;;;;;;8.03;43.83;95779.91;4951216;29;20932;-71
2022/02/14 07:03:16;;;;;;;19.70;12.73;;;;;;;8.19;44.36;95778.53;4950924;29;20598;-73
2022/02/14 07:05:43;;;;;;;20.30;13.52;;;;;;;8.42;43.68;95780.50;4950781;29;20612;-72
2022/02/14 07:08:10;;;;;;;19.98;13.55;;;;;;;8.53;43.21;95777.94;4950757;29;20698;-74
2022/02/14 07:10:36;;;;;;;25.02;14.32;;;;;;;8.64;43.65;95774.56;4950831;29;20264;-73
2022/02/14 07:13:03;;;;;;;21.48;14.13;;;;;;;8.82;43.15;95764.06;4951084;29;20236;-71
2022/02/14 07:15:31;;;;;;;21.27;14.07;;;;;;;8.81;43.31;95772.91;4950817;29;20275;-73
2022/02/14 07:18:01;;;;;;;25.50;13.90;;;;;;;8.77;43.71;95771.78;4953078;28;20281;-73
2022/02/14 07:20:28;;;;;;;30.00;14.77;;;;;;;8.92;43.19;95769.53;4954507;29;20286;-71
2022/02/14 07:22:55;;;;;;;23.35;15.15;;;;;;;8.90;43.42;95776.03;4955018;29;20604;-71
2022/02/14 07:25:22;;;;;;;30.23;15.82;;;;;;;9.01;43.09;95760.34;4954704;29;20279;-72
2022/02/14 07:27:50;;;;;;;24.15;14.30;;;;;;;9.06;43.58;95770.97;4954790;29;20195;-74
2022/02/14 07:30:17;;;;;;;27.05;15.57;;;;;;;9.11;43.24;95778.91;4955241;29;20207;-72
2022/02/14 07:32:44;;;;;;;26.33;15.93;;;;;;;9.15;43.97;95774.84;4954956;29;20651;-71
2022/02/14 07:35:14;;;;;;;27.48;17.02;;;;;;;9.18;43.37;95779.59;4954610;29;20208;-71
2022/02/14 07:37:43;;;;;;;31.13;16.75;;;;;;;8.79;44.88;95776.78;4954080;29;20195;-74
2022/02/14 07:40:12;;;;;;;26.88;15.82;;;;;;;8.93;44.68;95776.38;4953996;29;20210;-72
2022/02/14 07:42:39;;;;;;;30.50;19.25;;;;;;;8.90;44.84;95776.84;4954659;29;20204;-72
2022/02/14 07:45:07;;;;;;;25.83;18.65;;;;;;;9.04;45.00;95778.22;4937230;29;20274;-74
2022/02/14 07:47:34;;;;;;;28.52;18.33;;;;;;;8.66;45.34;95772.53;4954087;29;20438;-74
2022/02/14 07:50:02;;;;;;;28.13;19.13;;;;;;;8.96;44.76;95769.88;4963924;28;20231;-72
2022/02/14 07:52:29;;;;;;;28.13;18.80;;;;;;;9.25;44.54;95776.09;4952906;29;20200;-74
2022/02/14 07:54:56;;;;;;;38.25;19.75;;;;;;;9.13;44.97;95776.06;4952135;29;20212;-71
2022/02/14 07:57:23;;;;;;;34.17;21.17;;;;;;;8.91;45.65;95777.59;4953861;29;20217;-73
2022/02/14 07:59:50;;;;;;;30.63;19.48;;;;;;;9.23;45.01;95786.00;4953524;29;20204;-74
2022/02/14 08:02:17;;;;;;;35.08;21.17;;;;;;;9.06;45.38;95781.41;4953779;29;20192;-70
2022/02/14 08:04:46;;;;;;;46.42;25.58;;;;;;;8.92;45.80;95780.00;4953295;29;20211;-72
2022/02/14 08:07:13;;;;;;;50.17;29.52;;;;;;;9.18;45.96;95784.03;4953483;29;20204;-71
2022/02/14 08:09:41;;;;;;;44.20;27.98;;;;;;;9.24;45.25;95775.31;4953223;29;20621;-73
2022/02/14 08:12:09;;;;;;;54.60;28.88;;;;;;;9.31;45.62;95772.56;4953993;29;20195;-70
2022/02/14 08:14:37;;;;;;;44.97;28.58;;;;;;;9.18;46.02;95761.31;4953421;29;20295;-75
2022/02/14 08:17:05;;;;;;;50.53;33.08;;;;;;;9.32;46.54;95769.75;4953702;29;20204;-73
2022/02/14 08:19:35;;;;;;;52.30;32.72;;;;;;;9.41;46.07;95759.75;4953102;29;20238;-76
2022/02/14 08:22:05;;;;;;;52.63;33.55;;;;;;;9.55;45.67;95755.88;4953879;29;20188;-74
2022/02/14 08:24:33;;;;;;;58.20;34.00;;;;;;;9.80;44.83;95761.66;4953440;29;20210;-74
2022/02/14 08:27:03;;;;;;;55.78;35.45;;;;;;;9.60;45.17;95750.78;4953703;29;20211;-76
2022/02/14 08:29:30;;;;;;;53.25;34.80;;;;;;;9.47;45.33;95771.94;4953649;28;20275;-74
2022/02/14 08:31:57;;;;;;;56.03;33.50;;;;;;;8.87;47.60;95764.19;4953781;29;20215;-71
2022/02/14 08:34:24;;;;;;;52.35;35.90;;;;;;;9.03;47.38;95760.94;4952723;29;20196;-74
2022/02/14 08:36:51;;;;;;;62.70;41.72;;;;;;;9.24;47.51;95764.84;4936207;29;20697;-74
2022/02/14 08:39:18;;;;;;;73.88;45.33;;;;;;;9.32;46.88;95758.47;4953162;29;20200;-73
2022/02/14 08:41:46;;;;;;;73.68;46.42;;;;;;;9.19;47.37;95759.50;4951758;29;20691;-73
2022/02/14 08:44:13;;;;;;;73.03;46.40;;;;;;;9.53;47.22;95755.31;4952607;29;20636;-71
2022/02/14 08:46:40;;;;;;;80.28;50.15;;;;;;;9.10;48.65;95756.38;4953373;29;20207;-74
2022/02/14 08:49:07;;;;;;;74.55;46.50;;;;;;;9.54;47.71;95767.38;4952432;29;20859;-73
2022/02/14 08:51:34;;;;;;;53.38;36.38;;;;;;;9.53;46.73;95760.53;4953215;29;20224;-72
2022/02/14 08:54:01;;;;;;;60.05;37.45;;;;;;;9.38;47.08;95762.81;4952410;29;20745;-71
2022/02/14 08:56:29;;;;;;;45.85;31.95;;;;;;;9.58;46.82;95752.81;4952761;29;20219;-74
2022/02/14 08:58:56;;;;;;;37.35;25.85;;;;;;;9.61;46.73;95754.97;4951843;29;20215;-72
2022/02/14 09:01:25;;;;;;;32.95;20.95;;;;;;;9.63;46.83;95763.38;4952421;29;20204;-72
2022/02/14 09:03:55;;;;;;;32.67;20.50;;;;;;;9.74;46.55;95762.59;4950850;29;20203;-73
2022/02/14 09:06:22;;;;;;;31.13;21.08;;;;;;;10.02;45.51;95762.66;4952770;29;20619;-74
2022/02/14 09:08:49;;;;;;;26.40;17.27;;;;;;;9.94;45.42;95752.56;4950368;29;20208;-72
2022/02/14 09:11:17;;;;;;;30.15;19.38;;;;;;;9.98;44.65;95764.94;4952273;29;20685;-73
2022/02/14 09:13:43;;;;;;;29.52;20.42;;;;;;;10.25;45.24;95765.28;4951909;29;20590;-71
2022/02/14 09:16:10;;;;;;;31.52;21.33;;;;;;;10.44;45.72;95769.31;4952543;29;20214;-75
2022/02/14 09:18:38;;;;;;;29.30;18.92;;;;;;;10.21;45.87;95764.13;4952025;29;20207;-71
2022/02/14 09:21:06;;;;;;;28.85;18.92;;;;;;;10.25;46.07;95754.81;4952707;29;20196;-72
2022/02/14 09:23:35;;;;;;;32.30;21.25;;;;;;;10.62;45.53;95766.50;4951973;29;20240;-73
2022/02/14 09:26:02;;;;;;;33.47;22.75;;;;;;;10.52;45.65;95755.84;4952109;29;20196;-74
2022/02/14 09:28:30;;;;;;;37.92;26.20;;;;;;;10.19;46.35;95761.75;4951599;29;20200;-74
2022/02/14 09:30:57;;;;;;;39.28;27.23;;;;;;;10.23;46.13;95766.53;4952344;29;20234;-73
2022/02/14 09:33:26;;;;;;;44.45;29.35;;;;;;;10.40;46.36;95768.16;4951530;29;20200;-73
2022/02/14 09:35:54;;;;;;;38.83;28.55;;;;;;;10.40;46.41;95767.41;4951955;29;20286;-72
2022/02/14 09:38:26;;;;;;;37.63;27.40;;;;;;;10.49;45.79;95761.53;4953533;29;20203;-71
2022/02/14 09:40:54;;;;;;;38.45;26.50;;;;;;;10.74;45.96;95767.28;4951759;28;20366;-73
2022/02/14 09:43:21;;;;;;;41.88;26.73;;;;;;;10.52;45.90;95758.47;4951785;29;20706;-73
2022/02/14 09:45:48;;;;;;;37.20;26.98;;;;;;;10.44;45.93;95768.53;4952180;29;20200;-73
2022/02/14 09:48:17;;;;;;;40.90;28.77;;;;;;;10.34;45.14;95760.47;4951537;29;20242;-71
2022/02/14 09:50:47;;;;;;;40.80;28.98;;;;;;;10.00;45.61;95712.34;4952215;29;20231;-74
2022/02/14 09:53:15;;;;;;;43.03;30.13;;;;;;;10.18;45.99;95759.38;4952225;29;20210;-75
2022/02/14 09:55:46;;;;;;;46.30;30.48;;;;;;;9.84;46.39;95734.00;4952196;29;20215;-73
2022/02/14 09:58:13;;;;;;;47.30;32.63;;;;;;;10.04;46.03;95747.50;4950955;29;20699;-75
2022/02/14 10:00:40;;;;;;;46.08;31.85;;;;;;;10.26;45.92;95756.38;4951550;29;20192;-72
2022/02/14 10:03:18;;;;;;;44.75;31.50;;;;;;;10.09;46.22;95745.06;4952872;29;20200;-72
2022/02/14 10:05:48;;;;;;;46.88;32.83;;;;;;;10.33;46.20;95757.03;4953122;29;20207;-74
2022/02/14 10:08:19;;;;;;;50.97;32.03;;;;;;;10.31;45.68;95748.59;4952611;29;20581;-71
2022/02/14 10:10:49;;;;;;;46.83;32.55;;;;;;;10.21;46.46;95745.81;4952781;29;20227;-71
2022/02/14 10:13:33;;;;;;;50.78;33.65;;;;;;;10.48;46.78;95743.44;4951194;29;20247;-72
2022/02/14 10:16:06;;;;;;;50.17;32.25;;;;;;;10.68;46.32;95744.59;4951757;29;20727;-72
2022/02/14 10:18:34;;;;;;;45.25;31.13;;;;;;;10.61;45.99;95720.38;4951169;29;20306;-72
2022/02/14 10:21:20;;;;;;;51.38;32.95;;;;;;;10.41;46.06;95733.09;4951660;29;20263;-73
2022/02/14 10:24:10;;;;;;;52.95;36.30;;;;;;;11.02;45.43;95724.50;4951194;29;20200;-73
2022/02/14 10:26:40;;;;;;;52.80;36.40;;;;;;;11.36;44.77;95712.16;4951701;29;20208;-73
2022/02/14 10:29:19;;;;;;;65.45;41.15;;;;;;;11.36;45.40;95709.53;4933629;29;20718;-70
2022/02/14 10:31:53;;;;;;;55.58;37.53;;;;;;;11.47;44.37;95682.41;4951579;29;20251;-70
2022/02/14 10:34:31;;;;;;;54.13;37.57;;;;;;;11.98;43.56;95692.56;4950952;29;20210;-72
2022/02/14 10:36:58;;;;;;;55.30;36.97;;;;;;;11.95;42.89;95693.06;4933784;29;20986;-71
2022/02/14 10:39:26;;;;;;;59.00;39.07;;;;;;;11.61;43.78;95687.06;4950751;29;20450;-74
2022/02/14 10:42:04;;;;;;;59.00;39.37;;;;;;;11.51;43.44;95683.50;4951612;29;20443;-74
2022/02/14 10:47:32;;;;;;;57.13;38.90;;;;;;;12.70;42.65;95664.94;4951072;29;20451;-72
2022/02/14 10:50:16;;;;;;;52.47;36.70;;;;;;;12.45;42.96;95669.16;4950944;29;20478;-75
2022/02/14 10:52:52;;;;;;;55.70;38.23;;;;;;;12.03;42.83;95664.53;4954677;28;20530;-74
2022/02/14 10:55:26;;;;;;;57.75;38.65;;;;;;;12.14;43.18;95655.72;4954692;29;20454;-72
2022/02/14 10:57:55;;;;;;;58.73;35.77;;;;;;;11.53;43.40;95655.19;4954781;29;20286;-71
2022/02/14 11:00:26;;;;;;;52.78;36.17;;;;;;;11.44;43.83;95659.28;4954671;29;20821;-73
2022/02/14 11:02:58;;;;;;;58.53;35.97;;;;;;;11.68;43.58;95655.41;4954967;29;20223;-73
2022/02/14 11:05:28;;;;;;;54.65;37.50;;;;;;;11.56;44.64;95654.69;4954156;29;20537;-70
2022/02/14 11:07:55;;;;;;;57.40;39.47;;;;;;;11.29;44.45;95661.69;4937257;29;20255;-72
2022/02/14 11:10:26;;;;;;;54.17;36.00;;;;;;;11.40;44.46;95640.59;4954310;29;20577;-71
2022/02/14 11:12:57;;;;;;;56.43;36.47;;;;;;;11.68;43.92;95655.41;4954712;29;20239;-71
2022/02/14 11:15:27;;;;;;;59.67;38.43;;;;;;;11.90;44.03;95651.75;4953960;29;20451;-70
2022/02/14 11:18:11;;;;;;;54.83;38.23;;;;;;;12.42;42.84;95644.19;4954543;29;20459;-70
2022/02/14 11:20:39;;;;;;;51.83;36.13;;;;;;;12.06;42.08;95610.72;4954054;29;21122;-71
2022/02/14 11:23:10;;;;;;;63.90;39.10;;;;;;;12.58;42.12;95640.66;4954358;29;20447;-71
2022/02/14 11:25:49;;;;;;;51.33;35.67;;;;;;;13.13;42.05;95638.50;4953681;29;20438;-70
2022/02/14 11:28:22;;;;;;;54.17;37.37;;;;;;;13.11;41.56;95634.53;4954022;29;20451;-71
2022/02/14 11:31:14;;;;;;;54.77;37.27;;;;;;;13.19;41.02;95640.13;4954034;29;20485;-73